Time;durP1;ratioP1;P1;durP2;ratioP2;P2;SDS_P1;SDS_P2;PMS_P1;PMS_P2;Temp;Humidity;BMP_temperature;BMP_pressure;BME280_temperature;BME280_humidity;BME280_pressure;Samples;Min_cycle;Max_cycle;Signal;HPM_P1;HPM_P2
2022/05/25 00:01:55;;;;;;;;;;;9.40;99.90;;;;;;5005870;28;20424;-68
2022/05/25 00:04:22;;;;;;;;;;;9.30;99.90;;;;;;4998951;28;20380;-68
2022/05/25 00:06:49;;;;;;;;;;;9.30;99.90;;;;;;4997710;28;19933;-68
2022/05/25 00:09:16;;;;;;;;;;;9.30;99.90;;;;;;5005637;28;20032;-68
2022/05/25 00:11:42;;;;;;;;;;;9.30;99.90;;;;;;4993477;28;19925;-67
2022/05/25 00:14:09;;;;;;;;;;;9.30;99.90;;;;;;5003879;28;19956;-67
2022/05/25 00:16:36;;;;;;;;;;;9.30;99.90;;;;;;5006461;28;20019;-67
2022/05/25 00:21:49;;;;;;;;;;;9.20;99.90;;;;;;4991883;28;19929;-67
2022/05/25 00:24:15;;;;;;;;;;;9.20;99.90;;;;;;5003989;28;19956;-68
2022/05/25 00:26:42;;;;;;;;;;;9.20;99.90;;;;;;5006035;28;20385;-67
2022/05/25 00:29:11;;;;;;;;;;;9.20;99.90;;;;;;5008955;28;19933;-67
2022/05/25 00:31:38;;;;;;;;;;;9.30;99.90;;;;;;5008293;28;20028;-67
2022/05/25 00:34:05;;;;;;;;;;;9.20;99.90;;;;;;5004402;28;19930;-67
2022/05/25 00:36:31;;;;;;;;;;;9.20;99.90;;;;;;5007144;28;19933;-67
2022/05/25 00:39:00;;;;;;;;;;;9.20;99.90;;;;;;5002711;28;20242;-67
2022/05/25 00:41:30;;;;;;;;;;;9.20;99.90;;;;;;5005961;28;20016;-68
2022/05/25 00:43:57;;;;;;;;;;;9.20;99.90;;;;;;5004891;28;19929;-67
2022/05/25 00:46:28;;;;;;;;;;;9.30;99.90;;;;;;5006315;28;19925;-67
2022/05/25 00:49:21;;;;;;;;;;;9.30;99.90;;;;;;5012321;28;19992;-67
2022/05/25 00:51:49;;;;;;;;;;;9.20;99.90;;;;;;5012203;28;20012;-67
2022/05/25 00:54:21;;;;;;;;;;;9.20;99.90;;;;;;5011573;28;19925;-67
2022/05/25 00:56:50;;;;;;;;;;;9.20;99.90;;;;;;5007973;28;19972;-67
2022/05/25 00:59:39;;;;;;;;;;;9.20;99.90;;;;;;5005925;28;20008;-67
2022/05/25 01:02:06;;;;;;;;;;;9.20;99.90;;;;;;4963099;28;19926;-67
2022/05/25 01:04:33;;;;;;;;;;;9.20;99.90;;;;;;4951058;28;20568;-67
2022/05/25 01:07:22;;;;;;;;;;;9.10;99.90;;;;;;4971618;28;20006;-67
2022/05/25 01:10:02;;;;;;;;;;;9.10;99.90;;;;;;4960303;28;19926;-67
2022/05/25 01:12:44;;;;;;;;;;;9.00;99.90;;;;;;4966076;28;19926;-67
2022/05/25 01:15:32;;;;;;;;;;;9.00;99.90;;;;;;4963437;28;20024;-67
2022/05/25 01:18:07;;;;;;;;;;;8.90;99.90;;;;;;4964452;28;19984;-68
2022/05/25 01:20:41;;;;;;;;;;;8.90;99.90;;;;;;4966951;28;19945;-68
2022/05/25 01:23:18;;;;;;;;;;;8.90;99.90;;;;;;4968973;28;19969;-68
2022/05/25 01:25:54;;;;;;;;;;;8.90;99.90;;;;;;4967301;28;19926;-68
2022/05/25 01:28:20;;;;;;;;;;;8.90;99.90;;;;;;4968044;28;19940;-68
2022/05/25 01:30:49;;;;;;;;;;;8.80;99.90;;;;;;4966368;28;19952;-68
2022/05/25 01:33:29;;;;;;;;;;;8.70;99.90;;;;;;4969244;28;19926;-68
2022/05/25 01:35:59;;;;;;;;;;;8.60;99.90;;;;;;4969169;28;19926;-68
2022/05/25 01:38:35;;;;;;;;;;;8.50;99.90;;;;;;4972264;28;20304;-68
2022/05/25 01:41:17;;;;;;;;;;;8.40;99.90;;;;;;5007360;28;20020;-68
2022/05/25 01:43:43;;;;;;;;;;;8.30;99.90;;;;;;5010304;28;20012;-68
2022/05/25 01:46:14;;;;;;;;;;;8.30;99.90;;;;;;5013144;28;20016;-68
2022/05/25 01:48:42;;;;;;;;;;;8.20;99.90;;;;;;5008957;28;19937;-68
2022/05/25 01:51:11;;;;;;;;;;;8.00;99.90;;;;;;5008598;28;19925;-68
2022/05/25 01:53:41;;;;;;;;;;;8.00;99.90;;;;;;5009709;28;20056;-68
2022/05/25 01:56:10;;;;;;;;;;;7.90;99.90;;;;;;5009618;28;19925;-68
2022/05/25 01:58:38;;;;;;;;;;;7.80;99.90;;;;;;5011994;28;20013;-68
2022/05/25 02:01:06;;;;;;;;;;;7.80;99.90;;;;;;4998154;28;20016;-68
2022/05/25 02:06:29;;;;;;;;;;;7.80;99.90;;;;;;5011998;28;19930;-68
2022/05/25 02:09:02;;;;;;;;;;;7.70;99.90;;;;;;5006871;28;20004;-68
2022/05/25 02:11:48;;;;;;;;;;;7.60;99.90;;;;;;5012808;28;19925;-68
2022/05/25 02:14:31;;;;;;;;;;;7.60;99.90;;;;;;5005716;28;20025;-68
2022/05/25 02:16:57;;;;;;;;;;;7.50;99.90;;;;;;5003481;28;20016;-68
2022/05/25 02:19:27;;;;;;;;;;;7.50;99.90;;;;;;5004324;28;20008;-68
2022/05/25 02:21:56;;;;;;;;;;;7.40;99.90;;;;;;4999287;28;20420;-68
2022/05/25 02:24:28;;;;;;;;;;;7.40;99.90;;;;;;5005959;28;19925;-68
2022/05/25 02:26:59;;;;;;;;;;;7.40;99.90;;;;;;5001251;28;19971;-68
2022/05/25 02:29:30;;;;;;;;;;;7.30;99.90;;;;;;5004211;28;20025;-68
2022/05/25 02:32:09;;;;;;;;;;;7.30;99.90;;;;;;5003551;28;19957;-68
2022/05/25 02:34:40;;;;;;;;;;;7.20;99.90;;;;;;5002347;28;20025;-68
2022/05/25 02:37:07;;;;;;;;;;;7.30;99.90;;;;;;5007487;28;19932;-67
2022/05/25 02:39:34;;;;;;;;;;;7.30;99.90;;;;;;5008565;28;19925;-68
2022/05/25 02:42:01;;;;;;;;;;;7.30;99.90;;;;;;4999418;28;19926;-68
2022/05/25 02:44:27;;;;;;;;;;;7.30;99.90;;;;;;5006470;28;19952;-68
2022/05/25 02:46:54;;;;;;;;;;;7.30;99.90;;;;;;5007661;28;19925;-68
2022/05/25 02:49:21;;;;;;;;;;;7.20;99.90;;;;;;5003429;28;19932;-68
2022/05/25 02:51:50;;;;;;;;;;;7.10;99.90;;;;;;5011373;28;20320;-68
2022/05/25 02:54:22;;;;;;;;;;;7.00;99.90;;;;;;5005570;28;19960;-69
2022/05/25 02:56:49;;;;;;;;;;;7.00;99.90;;;;;;5009200;28;19968;-68
2022/05/25 02:59:16;;;;;;;;;;;7.00;99.90;;;;;;4994509;28;20433;-69
2022/05/25 03:01:42;;;;;;;;;;;7.00;99.90;;;;;;5004835;28;20339;-68
2022/05/25 03:04:09;;;;;;;;;;;7.00;99.90;;;;;;4997228;28;20459;-68
2022/05/25 03:06:36;;;;;;;;;;;7.00;99.90;;;;;;4997063;28;20007;-69
2022/05/25 03:09:03;;;;;;;;;;;7.00;99.90;;;;;;5010536;28;20011;-69
2022/05/25 03:11:30;;;;;;;;;;;6.90;99.90;;;;;;5008004;28;20315;-69
2022/05/25 03:13:57;;;;;;;;;;;6.90;99.90;;;;;;5005429;28;19926;-68
2022/05/25 03:16:23;;;;;;;;;;;6.90;99.90;;;;;;5004014;28;20020;-68
2022/05/25 03:18:53;;;;;;;;;;;6.80;99.90;;;;;;5011079;28;19964;-68
2022/05/25 03:21:20;;;;;;;;;;;6.70;99.90;;;;;;5003407;28;19932;-69
2022/05/25 03:23:46;;;;;;;;;;;6.70;99.90;;;;;;4996845;28;19993;-68
2022/05/25 03:26:14;;;;;;;;;;;6.70;99.90;;;;;;5008167;28;19925;-69
2022/05/25 03:28:41;;;;;;;;;;;6.70;99.90;;;;;;5004937;28;20000;-69
2022/05/25 03:31:08;;;;;;;;;;;6.50;99.90;;;;;;5004634;28;20040;-69
2022/05/25 03:33:35;;;;;;;;;;;6.60;99.90;;;;;;5007503;28;20001;-69
2022/05/25 03:36:02;;;;;;;;;;;6.60;99.90;;;;;;5003381;28;19932;-69
2022/05/25 03:38:30;;;;;;;;;;;6.50;99.90;;;;;;5006184;28;20274;-69
2022/05/25 03:40:58;;;;;;;;;;;6.50;99.90;;;;;;5004290;28;19957;-69
2022/05/25 03:43:29;;;;;;;;;;;6.50;99.90;;;;;;5009260;28;19929;-69
2022/05/25 03:45:56;;;;;;;;;;;6.50;99.90;;;;;;4955445;28;20232;-69
2022/05/25 03:48:25;;;;;;;;;;;6.50;99.90;;;;;;4981633;28;25086;-69
2022/05/25 03:50:52;;;;;;;;;;;6.50;99.90;;;;;;4994623;28;25065;-69
2022/05/25 03:53:18;;;;;;;;;;;6.70;99.90;;;;;;4988382;28;25060;-69
2022/05/25 03:55:50;;;;;;;;;;;6.70;99.90;;;;;;4920861;28;25086;-69
2022/05/25 03:58:17;;;;;;;;;;;6.70;99.90;;;;;;4858191;28;25075;-69
2022/05/25 04:00:44;;;;;;;;;;;6.80;99.90;;;;;;4832914;28;70110;-69
2022/05/25 04:03:15;;;;;;;;;;;6.80;99.90;;;;;;4869295;28;31067;-69
2022/05/25 04:05:42;;;;;;;;;;;6.80;99.90;;;;;;4554575;28;1840185;-69
2022/05/25 04:08:12;;;;;;;;;;;6.80;99.90;;;;;;4793595;28;733239;-69
2022/05/25 04:10:39;;;;;;;;;;;6.90;99.90;;;;;;4918912;28;24643;-69
2022/05/25 04:13:12;;;;;;;;;;;7.00;99.90;;;;;;4988450;28;25062;-69
2022/05/25 04:15:39;;;;;;;;;;;7.00;99.90;;;;;;5003601;28;20290;-69
2022/05/25 04:18:06;;;;;;;;;;;7.10;99.90;;;;;;4998948;28;19925;-69
2022/05/25 04:20:32;;;;;;;;;;;7.20;99.90;;;;;;5006729;28;20013;-69
2022/05/25 04:23:00;;;;;;;;;;;7.30;99.90;;;;;;5007974;28;19932;-69
2022/05/25 04:25:26;;;;;;;;;;;7.40;99.90;;;;;;5005510;28;19930;-69
2022/05/25 04:27:54;;;;;;;;;;;7.50;99.90;;;;;;5007723;28;19921;-69
2022/05/25 04:30:23;;;;;;;;;;;7.60;99.90;;;;;;5010339;28;19929;-69
2022/05/25 04:32:49;;;;;;;;;;;7.80;99.90;;;;;;5008098;28;20277;-69
2022/05/25 04:35:16;;;;;;;;;;;7.90;99.90;;;;;;5004761;28;20004;-69
2022/05/25 04:37:48;;;;;;;;;;;8.20;99.90;;;;;;5006011;28;20418;-69
2022/05/25 04:40:27;;;;;;;;;;;9.30;99.90;;;;;;5004673;28;20380;-70
2022/05/25 04:42:55;;;;;;;;;;;11.00;99.90;;;;;;5008954;28;20442;-69
2022/05/25 04:45:25;;;;;;;;;;;12.90;99.90;;;;;;4996369;28;19921;-67
2022/05/25 04:47:52;;;;;;;;;;;14.50;99.90;;;;;;5001288;28;19922;-67
2022/05/25 04:50:20;;;;;;;;;;;15.80;99.90;;;;;;5000469;28;20007;-67
2022/05/25 04:52:46;;;;;;;;;;;17.00;99.90;;;;;;5004622;28;19921;-67
2022/05/25 04:57:19;;;;;;;;;;;18.80;99.90;;;;;;5006008;28;19992;-67
2022/05/25 04:58:00;;;;;;;;;;;19.00;99.90;;;;;;5009153;28;20388;-67
2022/05/25 05:00:27;;;;;;;;;;;20.20;99.90;;;;;;5002996;28;20408;-67
2022/05/25 05:02:54;;;;;;;;;;;20.90;99.90;;;;;;4992500;28;20606;-67
2022/05/25 05:05:21;;;;;;;;;;;21.30;99.90;;;;;;4989232;28;19922;-67
2022/05/25 05:07:47;;;;;;;;;;;21.90;99.90;;;;;;5003607;28;20052;-67
2022/05/25 05:10:14;;;;;;;;;;;22.30;99.90;;;;;;5001104;28;20507;-67
2022/05/25 05:12:41;;;;;;;;;;;22.10;99.90;;;;;;4996466;28;19932;-67
2022/05/25 05:15:10;;;;;;;;;;;21.50;99.90;;;;;;5010510;28;19939;-67
2022/05/25 05:17:37;;;;;;;;;;;21.90;99.90;;;;;;5004495;28;20353;-67
2022/05/25 05:20:04;;;;;;;;;;;22.10;99.90;;;;;;5005087;28;19927;-66
2022/05/25 05:22:34;;;;;;;;;;;22.60;99.90;;;;;;5009621;28;20341;-66
2022/05/25 05:25:01;;;;;;;;;;;23.20;99.90;;;;;;5009883;28;20350;-66
2022/05/25 05:27:28;;;;;;;;;;;23.80;99.90;;;;;;5006229;28;20017;-66
2022/05/25 05:29:59;;;;;;;;;;;23.90;99.90;;;;;;5002209;28;20012;-67
2022/05/25 05:32:25;;;;;;;;;;;24.30;99.90;;;;;;5005849;28;19965;-67
2022/05/25 05:34:52;;;;;;;;;;;24.60;99.90;;;;;;5010009;28;19952;-66
2022/05/25 05:37:20;;;;;;;;;;;24.80;99.90;;;;;;5015223;28;20514;-67
2022/05/25 05:39:48;;;;;;;;;;;24.80;99.90;;;;;;5006905;28;20266;-66
2022/05/25 05:42:17;;;;;;;;;;;24.60;99.90;;;;;;5007289;28;20020;-66
2022/05/25 05:44:58;;;;;;;;;;;24.50;99.90;;;;;;4999587;28;19972;-66
2022/05/25 05:47:30;;;;;;;;;;;24.10;99.90;;;;;;5011448;28;20047;-66
2022/05/25 05:50:05;;;;;;;;;;;24.20;99.90;;;;;;4987274;28;19930;-66
2022/05/25 05:52:33;;;;;;;;;;;24.80;99.90;;;;;;5009491;28;19921;-66
2022/05/25 05:54:59;;;;;;;;;;;25.30;99.90;;;;;;4992812;28;20649;-66
2022/05/25 05:57:27;;;;;;;;;;;25.60;99.90;;;;;;5003639;28;19929;-66
2022/05/25 05:59:53;;;;;;;;;;;26.00;99.90;;;;;;4999179;28;20313;-70
2022/05/25 06:02:23;;;;;;;;;;;25.90;99.90;;;;;;5003090;28;19929;-70
2022/05/25 06:04:50;;;;;;;;;;;25.50;99.90;;;;;;4995477;28;20009;-69
2022/05/25 06:07:19;;;;;;;;;;;25.10;99.90;;;;;;5004839;28;19928;-70
2022/05/25 06:09:49;;;;;;;;;;;24.90;99.90;;;;;;5009774;28;19930;-69
2022/05/25 06:12:17;;;;;;;;;;;24.00;99.90;;;;;;4997786;28;19987;-68
2022/05/25 06:14:43;;;;;;;;;;;24.40;99.90;;;;;;5002603;28;19929;-68
2022/05/25 06:19:55;;;;;;;;;;;25.60;99.90;;;;;;5008709;28;20400;-68
2022/05/25 06:22:31;;;;;;;;;;;26.10;99.90;;;;;;5003628;28;19929;-68
2022/05/25 06:24:58;;;;;;;;;;;26.20;99.90;;;;;;5007089;28;20016;-68
2022/05/25 06:27:25;;;;;;;;;;;26.40;99.90;;;;;;5008345;28;20013;-67
2022/05/25 06:29:52;;;;;;;;;;;26.60;99.90;;;;;;5010592;28;19940;-67
2022/05/25 06:32:21;;;;;;;;;;;26.60;99.90;;;;;;5006793;28;19931;-67
2022/05/25 06:34:48;;;;;;;;;;;26.40;99.90;;;;;;5008822;28;20424;-67
2022/05/25 06:37:19;;;;;;;;;;;26.20;99.90;;;;;;5005988;28;19932;-67
2022/05/25 06:39:49;;;;;;;;;;;26.10;99.90;;;;;;5008262;28;19925;-66
2022/05/25 06:42:17;;;;;;;;;;;26.50;99.90;;;;;;5009822;28;19921;-66
2022/05/25 06:44:44;;;;;;;;;;;26.80;99.90;;;;;;5002776;28;19925;-66
2022/05/25 06:47:17;;;;;;;;;;;26.90;99.80;;;;;;5003124;28;19921;-66
2022/05/25 06:49:44;;;;;;;;;;;26.80;99.50;;;;;;5005634;28;20008;-66
2022/05/25 06:52:12;;;;;;;;;;;26.70;99.70;;;;;;5006111;28;19921;-65
2022/05/25 06:54:39;;;;;;;;;;;26.90;99.90;;;;;;5003549;28;19929;-66
2022/05/25 06:57:06;;;;;;;;;;;26.70;99.70;;;;;;5003502;28;19922;-65
2022/05/25 06:59:33;;;;;;;;;;;26.50;99.10;;;;;;5004320;28;19922;-63
2022/05/25 07:01:59;;;;;;;;;;;25.10;99.90;;;;;;5007179;28;19949;-65
2022/05/25 07:04:26;;;;;;;;;;;24.60;99.90;;;;;;4998895;28;19921;-63
2022/05/25 07:07:00;;;;;;;;;;;25.10;99.90;;;;;;5006145;28;19960;-64
2022/05/25 07:09:27;;;;;;;;;;;26.00;99.90;;;;;;5004016;28;19930;-63
2022/05/25 07:11:54;;;;;;;;;;;26.00;99.10;;;;;;5006266;28;19952;-67
2022/05/25 07:14:23;;;;;;;;;;;26.10;98.30;;;;;;4990010;28;20554;-67
2022/05/25 07:16:54;;;;;;;;;;;26.20;98.40;;;;;;5000977;28;20665;-65
2022/05/25 07:19:21;;;;;;;;;;;26.50;98.90;;;;;;5002147;28;19930;-66
2022/05/25 07:21:48;;;;;;;;;;;26.50;97.90;;;;;;5008794;28;19922;-66
2022/05/25 07:24:15;;;;;;;;;;;26.90;96.90;;;;;;5009923;28;19921;-66
2022/05/25 07:26:42;;;;;;;;;;;26.00;97.80;;;;;;5014522;28;19925;-66
2022/05/25 07:29:08;;;;;;;;;;;26.20;97.10;;;;;;5006961;28;19965;-66
2022/05/25 07:31:41;;;;;;;;;;;25.70;96.20;;;;;;5012988;28;20453;-66
2022/05/25 07:34:14;;;;;;;;;;;25.80;96.70;;;;;;4997678;28;20024;-67
2022/05/25 07:36:41;;;;;;;;;;;26.30;97.10;;;;;;5006544;28;20016;-66
2022/05/25 07:39:13;;;;;;;;;;;26.20;98.20;;;;;;5008506;28;20020;-66
2022/05/25 07:41:41;;;;;;;;;;;26.10;97.60;;;;;;4998530;28;19975;-66
2022/05/25 07:44:13;;;;;;;;;;;26.60;97.80;;;;;;5010093;28;19922;-66
2022/05/25 07:46:40;;;;;;;;;;;27.00;96.50;;;;;;5005588;28;19956;-66
2022/05/25 07:49:07;;;;;;;;;;;26.60;97.20;;;;;;4997802;28;19928;-66
2022/05/25 07:51:34;;;;;;;;;;;26.70;97.00;;;;;;5007212;28;20542;-66
2022/05/25 07:54:01;;;;;;;;;;;26.40;96.50;;;;;;5009987;28;19953;-65
2022/05/25 07:56:29;;;;;;;;;;;26.00;96.80;;;;;;5005488;28;20545;-66
2022/05/25 07:58:58;;;;;;;;;;;25.50;97.30;;;;;;5001110;28;19963;-66
2022/05/25 08:06:58;;;;;;;;;;;25.50;96.10;;;;;;5007551;28;19931;-65
2022/05/25 08:09:26;;;;;;;;;;;25.00;97.20;;;;;;5008448;28;19936;-65
2022/05/25 08:11:53;;;;;;;;;;;25.00;96.30;;;;;;5003647;28;20454;-66
2022/05/25 08:14:20;;;;;;;;;;;24.90;96.10;;;;;;5001220;28;19927;-67
2022/05/25 08:16:47;;;;;;;;;;;24.90;97.10;;;;;;5004691;28;19971;-66
2022/05/25 08:19:15;;;;;;;;;;;25.30;97.00;;;;;;5007158;28;19925;-67
2022/05/25 08:21:42;;;;;;;;;;;25.60;96.30;;;;;;5012215;28;19925;-66
2022/05/25 08:24:13;;;;;;;;;;;26.00;96.30;;;;;;5001059;28;20035;-67
2022/05/25 08:26:41;;;;;;;;;;;26.10;96.00;;;;;;5003655;28;20214;-68
2022/05/25 08:29:07;;;;;;;;;;;26.10;96.20;;;;;;5006928;28;20020;-67
2022/05/25 08:31:34;;;;;;;;;;;26.00;96.50;;;;;;5008706;28;19932;-66
2022/05/25 08:34:01;;;;;;;;;;;26.30;95.50;;;;;;4993562;28;19926;-67
2022/05/25 08:36:28;;;;;;;;;;;26.60;96.00;;;;;;4991062;28;19921;-67
2022/05/25 08:38:55;;;;;;;;;;;26.40;95.50;;;;;;5004830;28;19965;-67
2022/05/25 08:41:26;;;;;;;;;;;25.80;95.50;;;;;;5010001;28;20463;-66
2022/05/25 08:43:54;;;;;;;;;;;25.50;95.60;;;;;;5000122;28;19927;-67
2022/05/25 08:46:22;;;;;;;;;;;25.60;95.10;;;;;;5008907;28;19929;-67
2022/05/25 08:48:52;;;;;;;;;;;25.50;95.10;;;;;;5005144;28;19921;-67
2022/05/25 08:51:39;;;;;;;;;;;26.00;95.80;;;;;;5012327;28;20024;-66
2022/05/25 08:54:06;;;;;;;;;;;26.30;94.40;;;;;;5010483;28;19930;-67
2022/05/25 08:56:33;;;;;;;;;;;25.10;95.00;;;;;;5008573;28;19921;-67
2022/05/25 08:59:07;;;;;;;;;;;24.70;96.80;;;;;;5009201;28;20021;-67
2022/05/25 09:01:48;;;;;;;;;;;25.20;96.80;;;;;;5011245;28;19928;-67
2022/05/25 09:04:41;;;;;;;;;;;25.70;95.20;;;;;;5003079;28;19922;-66
2022/05/25 09:07:17;;;;;;;;;;;24.90;95.60;;;;;;4940390;28;20321;-67
2022/05/25 09:09:50;;;;;;;;;;;25.30;95.30;;;;;;4965631;28;20018;-67
2022/05/25 09:12:24;;;;;;;;;;;25.40;95.50;;;;;;4966462;28;20011;-66
2022/05/25 09:15:11;;;;;;;;;;;25.00;95.40;;;;;;4962636;28;20772;-65
2022/05/25 09:17:49;;;;;;;;;;;25.80;96.60;;;;;;4959971;28;19926;-66
2022/05/25 09:20:18;;;;;;;;;;;26.20;95.20;;;;;;4958351;28;19922;-66
2022/05/25 09:22:51;;;;;;;;;;;26.70;94.00;;;;;;4962488;28;20578;-66
2022/05/25 09:25:18;;;;;;;;;;;27.40;94.50;;;;;;4963801;28;20429;-66
2022/05/25 09:27:47;;;;;;;;;;;27.90;92.90;;;;;;4963905;28;19929;-66
2022/05/25 09:30:15;;;;;;;;;;;27.30;92.50;;;;;;4958933;28;20876;-65
2022/05/25 09:32:53;;;;;;;;;;;26.50;93.20;;;;;;4960538;28;19957;-66
2022/05/25 09:35:31;;;;;;;;;;;25.90;93.30;;;;;;4958215;28;19923;-65
2022/05/25 09:38:12;;;;;;;;;;;26.10;93.90;;;;;;4954017;28;19932;-65
2022/05/25 09:40:40;;;;;;;;;;;26.40;93.60;;;;;;4958605;28;19926;-65
2022/05/25 09:43:09;;;;;;;;;;;26.40;93.70;;;;;;4964411;28;19933;-66
2022/05/25 09:45:40;;;;;;;;;;;26.30;93.10;;;;;;5005561;28;19925;-65
2022/05/25 09:48:14;;;;;;;;;;;26.10;93.60;;;;;;4994901;28;19929;-65
2022/05/25 09:50:45;;;;;;;;;;;27.10;93.40;;;;;;5009034;28;20380;-64
2022/05/25 09:53:15;;;;;;;;;;;28.00;94.90;;;;;;4996108;28;19925;-65
2022/05/25 09:55:43;;;;;;;;;;;28.20;93.00;;;;;;5005595;28;19936;-65
2022/05/25 09:58:12;;;;;;;;;;;27.00;92.10;;;;;;5001404;28;19922;-65
2022/05/25 10:00:41;;;;;;;;;;;26.20;93.40;;;;;;4995097;28;19928;-65
2022/05/25 10:03:12;;;;;;;;;;;25.70;93.00;;;;;;4996832;28;19926;-65
2022/05/25 10:06:06;;;;;;;;;;;26.10;93.80;;;;;;4997721;28;19925;-66
2022/05/25 10:08:36;;;;;;;;;;;26.60;92.60;;;;;;4995580;28;19951;-65
2022/05/25 10:11:27;;;;;;;;;;;26.20;92.50;;;;;;5040384;28;19951;-65
2022/05/25 10:14:13;;;;;;;;;;;25.50;92.90;;;;;;5029822;28;20015;-65
2022/05/25 10:16:40;;;;;;;;;;;25.80;93.20;;;;;;5000364;28;20072;-66
2022/05/25 10:19:14;;;;;;;;;;;27.10;92.90;;;;;;5003813;28;19925;-67
2022/05/25 10:21:48;;;;;;;;;;;27.10;92.00;;;;;;5002734;28;19922;-66
2022/05/25 10:24:17;;;;;;;;;;;27.40;91.90;;;;;;5005551;28;19922;-66
2022/05/25 10:26:48;;;;;;;;;;;28.10;93.10;;;;;;5034943;28;19944;-68
2022/05/25 10:37:51;;;;;;;;;;;27.90;88.80;;;;;;5001730;28;20015;-66
2022/05/25 10:40:24;;;;;;;;;;;27.40;91.00;;;;;;5008040;28;20410;-67
2022/05/25 10:42:56;;;;;;;;;;;27.30;90.00;;;;;;5001568;28;19928;-65
2022/05/25 10:45:40;;;;;;;;;;;27.40;90.60;;;;;;5008004;28;19927;-67
2022/05/25 10:48:38;;;;;;;;;;;26.60;90.80;;;;;;5005081;28;19930;-66
2022/05/25 10:51:12;;;;;;;;;;;25.40;91.40;;;;;;4997081;28;19970;-67
2022/05/25 10:53:43;;;;;;;;;;;25.50;91.30;;;;;;5004726;28;20365;-67
2022/05/25 10:56:19;;;;;;;;;;;26.00;92.00;;;;;;5008983;28;19963;-65
2022/05/25 10:59:03;;;;;;;;;;;26.10;91.50;;;;;;5000739;28;19925;-66
2022/05/25 11:01:33;;;;;;;;;;;25.70;90.90;;;;;;5008376;28;19930;-66
2022/05/25 11:04:04;;;;;;;;;;;25.80;91.10;;;;;;5008344;28;19922;-66
2022/05/25 11:06:52;;;;;;;;;;;26.60;91.80;;;;;;5007023;28;21198;-65
2022/05/25 11:09:43;;;;;;;;;;;27.30;90.90;;;;;;5010310;28;19922;-64
2022/05/25 11:12:29;;;;;;;;;;;27.80;90.80;;;;;;4996554;28;20297;-65
2022/05/25 11:15:01;;;;;;;;;;;28.10;91.00;;;;;;5008011;28;19922;-65
2022/05/25 11:17:31;;;;;;;;;;;29.00;89.20;;;;;;5005237;28;19957;-65
2022/05/25 11:20:17;;;;;;;;;;;28.30;89.50;;;;;;5006933;28;19925;-64
2022/05/25 11:22:49;;;;;;;;;;;27.40;90.10;;;;;;5009309;28;19945;-59
2022/05/25 11:25:22;;;;;;;;;;;26.50;90.40;;;;;;5002634;28;20019;-60
2022/05/25 11:27:57;;;;;;;;;;;26.00;90.50;;;;;;5003112;28;19928;-60
2022/05/25 11:30:37;;;;;;;;;;;26.30;91.40;;;;;;5004014;28;19925;-60
2022/05/25 11:33:33;;;;;;;;;;;26.70;90.80;;;;;;5000683;28;20288;-61
2022/05/25 11:36:31;;;;;;;;;;;26.80;90.90;;;;;;4958404;28;19932;-59
2022/05/25 11:39:16;;;;;;;;;;;26.20;89.80;;;;;;5000281;28;19925;-59
2022/05/25 11:42:07;;;;;;;;;;;25.20;90.90;;;;;;4997342;28;19925;-60
2022/05/25 11:44:52;;;;;;;;;;;24.50;92.10;;;;;;5001624;28;19995;-59
2022/05/25 11:47:27;;;;;;;;;;;25.20;90.60;;;;;;5005389;28;20008;-60
2022/05/25 11:49:54;;;;;;;;;;;25.80;91.60;;;;;;5004318;28;19929;-61
2022/05/25 11:52:47;;;;;;;;;;;26.60;90.80;;;;;;5007168;28;19929;-60
2022/05/25 11:55:40;;;;;;;;;;;27.00;90.90;;;;;;4978266;28;19990;-60
2022/05/25 11:58:25;;;;;;;;;;;27.40;89.00;;;;;;4994331;28;19936;-59
2022/05/25 12:01:03;;;;;;;;;;;27.50;89.30;;;;;;5002334;28;19927;-60
2022/05/25 12:03:45;;;;;;;;;;;27.40;87.30;;;;;;4999474;28;19922;-60
2022/05/25 12:06:12;;;;;;;;;;;26.90;87.90;;;;;;5003719;28;19929;-60
2022/05/25 12:08:53;;;;;;;;;;;26.80;88.60;;;;;;4999130;28;19929;-60
2022/05/25 12:11:35;;;;;;;;;;;27.00;88.90;;;;;;5002499;28;19932;-59
2022/05/25 12:14:21;;;;;;;;;;;26.70;88.80;;;;;;5000325;28;19925;-58
2022/05/25 12:16:48;;;;;;;;;;;25.80;89.40;;;;;;5000304;28;19936;-59
2022/05/25 12:19:18;;;;;;;;;;;25.00;91.20;;;;;;4999958;28;19921;-59
2022/05/25 12:21:50;;;;;;;;;;;24.80;90.80;;;;;;5004645;28;19927;-59
2022/05/25 12:24:19;;;;;;;;;;;24.40;91.10;;;;;;5003788;28;19936;-59
2022/05/25 12:26:46;;;;;;;;;;;24.90;90.60;;;;;;5006375;28;19975;-60
2022/05/25 12:29:34;;;;;;;;;;;24.90;90.30;;;;;;5010007;28;19926;-59
2022/05/25 12:32:01;;;;;;;;;;;24.60;90.40;;;;;;5008876;28;20424;-59
2022/05/25 12:34:36;;;;;;;;;;;24.70;90.30;;;;;;5011091;28;19928;-59
2022/05/25 12:37:04;;;;;;;;;;;24.40;90.40;;;;;;5009500;28;19928;-58
2022/05/25 12:39:43;;;;;;;;;;;24.30;90.20;;;;;;5007008;28;20442;-59
2022/05/25 12:42:34;;;;;;;;;;;24.10;91.20;;;;;;5011693;28;19921;-59
2022/05/25 12:50:57;;;;;;;;;;;23.00;90.60;;;;;;5018867;28;19921;-59
2022/05/25 12:53:24;;;;;;;;;;;23.30;91.20;;;;;;5008163;28;19965;-58
2022/05/25 12:55:54;;;;;;;;;;;24.10;90.60;;;;;;5012363;28;20039;-58
2022/05/25 12:58:56;;;;;;;;;;;24.30;90.30;;;;;;5011855;28;19922;-59
2022/05/25 13:01:23;;;;;;;;;;;24.10;90.20;;;;;;4967714;28;19936;-59
2022/05/25 13:03:49;;;;;;;;;;;24.60;90.80;;;;;;4969382;28;20041;-59
2022/05/25 13:06:17;;;;;;;;;;;25.20;90.30;;;;;;4967194;28;19933;-59
2022/05/25 13:08:47;;;;;;;;;;;26.10;90.20;;;;;;4966106;28;19922;-59
2022/05/25 13:11:32;;;;;;;;;;;26.20;88.60;;;;;;4960840;28;20080;-59
2022/05/25 13:14:01;;;;;;;;;;;25.80;89.00;;;;;;4965062;28;20025;-58
2022/05/25 13:16:49;;;;;;;;;;;26.30;88.80;;;;;;4964901;28;19926;-59
2022/05/25 13:19:36;;;;;;;;;;;26.50;88.80;;;;;;4963671;28;19993;-60
2022/05/25 13:22:03;;;;;;;;;;;26.90;88.60;;;;;;4956211;28;19937;-59
2022/05/25 13:24:51;;;;;;;;;;;26.50;89.20;;;;;;4964584;28;19922;-59
2022/05/25 13:27:23;;;;;;;;;;;25.70;88.00;;;;;;4963741;28;19932;-58
2022/05/25 13:30:17;;;;;;;;;;;24.50;89.40;;;;;;4959358;28;19930;-58
2022/05/25 13:32:47;;;;;;;;;;;24.40;90.20;;;;;;4963999;28;20386;-59
2022/05/25 13:35:30;;;;;;;;;;;24.20;87.90;;;;;;4969695;28;19922;-59
2022/05/25 13:37:59;;;;;;;;;;;24.40;89.40;;;;;;5017568;28;19928;-58
2022/05/25 13:40:29;;;;;;;;;;;24.50;90.10;;;;;;5007041;28;19925;-59
2022/05/25 13:42:55;;;;;;;;;;;25.10;90.80;;;;;;5026259;28;20004;-58
2022/05/25 13:45:24;;;;;;;;;;;25.30;90.10;;;;;;5006356;28;19933;-59
2022/05/25 13:47:51;;;;;;;;;;;25.10;90.00;;;;;;5006606;28;20015;-59
2022/05/25 13:50:35;;;;;;;;;;;24.80;90.40;;;;;;5003552;28;19921;-59
2022/05/25 13:53:06;;;;;;;;;;;24.50;90.50;;;;;;5006560;28;19921;-59
2022/05/25 13:55:35;;;;;;;;;;;23.90;90.90;;;;;;5006704;28;19976;-59
2022/05/25 13:58:13;;;;;;;;;;;24.70;91.10;;;;;;5008939;28;20020;-60
2022/05/25 14:00:44;;;;;;;;;;;25.40;90.90;;;;;;4996837;28;19930;-59
2022/05/25 14:03:17;;;;;;;;;;;25.40;90.80;;;;;;5006823;28;19921;-59
2022/05/25 14:05:44;;;;;;;;;;;24.80;90.70;;;;;;5008983;28;19983;-59
2022/05/25 14:08:15;;;;;;;;;;;24.50;91.20;;;;;;5005586;28;19921;-60
2022/05/25 14:11:12;;;;;;;;;;;25.30;91.00;;;;;;5003610;28;19931;-60
2022/05/25 14:13:40;;;;;;;;;;;26.50;90.90;;;;;;4935029;28;19922;-59
2022/05/25 14:16:07;;;;;;;;;;;27.40;88.60;;;;;;4935038;29;20409;-58
2022/05/25 14:18:54;;;;;;;;;;;27.80;87.50;;;;;;4934031;29;19934;-59
2022/05/25 14:21:36;;;;;;;;;;;27.70;89.80;;;;;;4935711;29;19931;-60
2022/05/25 14:24:05;;;;;;;;;;;27.70;86.30;;;;;;4933607;29;20299;-59
2022/05/25 14:26:34;;;;;;;;;;;27.90;87.40;;;;;;4931626;29;19937;-60
2022/05/25 14:29:03;;;;;;;;;;;28.20;85.40;;;;;;4932351;28;20459;-59
2022/05/25 14:31:31;;;;;;;;;;;28.40;85.50;;;;;;4936611;29;19923;-61
2022/05/25 14:34:03;;;;;;;;;;;28.40;83.60;;;;;;4928780;29;19922;-61
2022/05/25 14:36:30;;;;;;;;;;;28.20;84.60;;;;;;4933693;29;19941;-59
2022/05/25 14:38:56;;;;;;;;;;;28.30;85.20;;;;;;4938621;29;19922;-59
2022/05/25 14:41:45;;;;;;;;;;;28.60;84.60;;;;;;4936459;29;20025;-60
2022/05/25 14:44:30;;;;;;;;;;;28.40;84.60;;;;;;4930542;29;20533;-59
2022/05/25 14:46:57;;;;;;;;;;;26.60;85.00;;;;;;4934909;28;20062;-59
2022/05/25 14:49:23;;;;;;;;;;;26.40;87.20;;;;;;4951870;28;20482;-60
2022/05/25 14:51:50;;;;;;;;;;;25.90;86.30;;;;;;5006845;28;19921;-59
2022/05/25 14:54:24;;;;;;;;;;;25.00;88.70;;;;;;5001341;28;20661;-59
2022/05/25 14:56:52;;;;;;;;;;;24.30;89.00;;;;;;5009562;28;19929;-60
2022/05/25 14:59:26;;;;;;;;;;;24.60;89.60;;;;;;5005460;28;19932;-59
2022/05/25 15:01:58;;;;;;;;;;;25.50;89.40;;;;;;5008647;28;19922;-57
2022/05/25 15:04:29;;;;;;;;;;;26.20;88.40;;;;;;5000463;28;19922;-57
2022/05/25 15:06:56;;;;;;;;;;;27.50;87.00;;;;;;5003238;28;19921;-58
2022/05/25 15:09:34;;;;;;;;;;;28.30;85.90;;;;;;5004895;28;20024;-57
2022/05/25 15:12:18;;;;;;;;;;;29.20;84.20;;;;;;5003686;28;19928;-62
2022/05/25 15:20:43;;;;;;;;;;;29.40;83.60;;;;;;5003258;28;19921;-61
2022/05/25 15:23:23;;;;;;;;;;;28.40;83.90;;;;;;5001205;28;19933;-62